sensor_id;sensor_type;location;lat;lon;timestamp;pressure;altitude;pressure_sealevel;temperature;humidity
12775;BME280;6451;42.630;23.382;2023-05-03T00:00:46;94734.34;;;17.22;43.17
12775;BME280;6451;42.630;23.382;2023-05-03T00:03:13;94696.84;;;16.52;43.04
12775;BME280;6451;42.630;23.382;2023-05-03T00:05:41;94753.16;;;16.80;43.09
12775;BME280;6451;42.630;23.382;2023-05-03T00:08:08;94740.34;;;16.91;42.66
12775;BME280;6451;42.630;23.382;2023-05-03T00:10:35;94735.47;;;16.74;43.04
12775;BME280;6451;42.630;23.382;2023-05-03T00:13:02;94714.25;;;16.33;43.63
12775;BME280;6451;42.630;23.382;2023-05-03T00:15:29;94736.31;;;16.81;43.16
12775;BME280;6451;42.630;23.382;2023-05-03T00:17:58;94726.59;;;16.54;43.04
12775;BME280;6451;42.630;23.382;2023-05-03T00:20:26;94705.22;;;16.33;43.25
12775;BME280;6451;42.630;23.382;2023-05-03T00:22:53;94741.78;;;16.48;43.65
12775;BME280;6451;42.630;23.382;2023-05-03T00:25:20;94739.56;;;16.57;43.57
12775;BME280;6451;42.630;23.382;2023-05-03T00:27:47;94748.59;;;16.61;43.72
12775;BME280;6451;42.630;23.382;2023-05-03T00:30:14;94735.00;;;16.34;43.81
12775;BME280;6451;42.630;23.382;2023-05-03T00:32:43;94749.00;;;16.29;44.17
12775;BME280;6451;42.630;23.382;2023-05-03T00:35:11;94757.50;;;16.51;43.75
12775;BME280;6451;42.630;23.382;2023-05-03T00:37:38;94763.66;;;16.74;43.38
12775;BME280;6451;42.630;23.382;2023-05-03T00:40:06;94758.41;;;16.32;43.97
12775;BME280;6451;42.630;23.382;2023-05-03T00:42:34;94766.88;;;16.20;44.04
12775;BME280;6451;42.630;23.382;2023-05-03T00:45:02;94759.06;;;16.85;43.28
12775;BME280;6451;42.630;23.382;2023-05-03T00:47:30;94762.03;;;16.39;43.57
12775;BME280;6451;42.630;23.382;2023-05-03T00:49:59;94753.72;;;16.32;43.79
12775;BME280;6451;42.630;23.382;2023-05-03T00:52:28;94750.09;;;16.55;43.37
12775;BME280;6451;42.630;23.382;2023-05-03T00:54:55;94683.47;;;15.80;43.76
12775;BME280;6451;42.630;23.382;2023-05-03T00:57:23;94724.56;;;16.13;43.58
12775;BME280;6451;42.630;23.382;2023-05-03T00:59:51;94759.31;;;16.09;44.01
12775;BME280;6451;42.630;23.382;2023-05-03T01:02:18;94730.63;;;16.00;43.71
12775;BME280;6451;42.630;23.382;2023-05-03T01:04:46;94744.31;;;16.00;44.07
12775;BME280;6451;42.630;23.382;2023-05-03T01:07:24;94710.00;;;16.06;43.64
12775;BME280;6451;42.630;23.382;2023-05-03T01:10:00;94700.72;;;15.57;44.64
12775;BME280;6451;42.630;23.382;2023-05-03T01:12:39;94706.38;;;15.72;44.44
12775;BME280;6451;42.630;23.382;2023-05-03T01:15:15;94731.75;;;15.95;44.10
12775;BME280;6451;42.630;23.382;2023-05-03T01:17:48;94682.28;;;15.54;44.46
12775;BME280;6451;42.630;23.382;2023-05-03T01:20:19;94661.47;;;15.73;44.42
12775;BME280;6451;42.630;23.382;2023-05-03T01:22:55;94705.44;;;15.87;44.55
12775;BME280;6451;42.630;23.382;2023-05-03T01:25:27;94669.84;;;15.30;45.08
12775;BME280;6451;42.630;23.382;2023-05-03T01:27:55;94703.88;;;15.60;45.24
12775;BME280;6451;42.630;23.382;2023-05-03T01:30:24;94706.38;;;15.72;45.19
12775;BME280;6451;42.630;23.382;2023-05-03T01:33:03;94599.59;;;15.08;45.44
12775;BME280;6451;42.630;23.382;2023-05-03T01:35:36;94703.13;;;15.63;45.14
12775;BME280;6451;42.630;23.382;2023-05-03T01:38:04;94707.16;;;15.99;44.83
12775;BME280;6451;42.630;23.382;2023-05-03T01:40:37;94669.25;;;15.44;45.36
12775;BME280;6451;42.630;23.382;2023-05-03T01:43:07;94676.03;;;15.54;45.64
12775;BME280;6451;42.630;23.382;2023-05-03T01:45:35;94670.31;;;15.36;46.09
12775;BME280;6451;42.630;23.382;2023-05-03T01:48:08;94679.50;;;15.51;46.05
12775;BME280;6451;42.630;23.382;2023-05-03T01:50:35;94673.06;;;15.63;45.63
12775;BME280;6451;42.630;23.382;2023-05-03T01:53:04;94683.25;;;15.39;46.27
12775;BME280;6451;42.630;23.382;2023-05-03T01:55:32;94663.53;;;15.26;46.26
12775;BME280;6451;42.630;23.382;2023-05-03T01:57:59;94681.06;;;15.78;45.80
12775;BME280;6451;42.630;23.382;2023-05-03T02:00:26;94658.56;;;15.09;46.56
12775;BME280;6451;42.630;23.382;2023-05-03T02:02:53;94669.47;;;15.58;46.13
12775;BME280;6451;42.630;23.382;2023-05-03T02:05:21;94653.50;;;15.34;46.36
12775;BME280;6451;42.630;23.382;2023-05-03T02:07:48;94632.84;;;15.40;46.07
12775;BME280;6451;42.630;23.382;2023-05-03T02:10:15;94593.22;;;15.00;46.37
12775;BME280;6451;42.630;23.382;2023-05-03T02:12:43;94651.38;;;15.24;46.47
12775;BME280;6451;42.630;23.382;2023-05-03T02:15:11;94584.03;;;14.86;46.61
12775;BME280;6451;42.630;23.382;2023-05-03T02:17:41;94662.72;;;15.52;46.12
12775;BME280;6451;42.630;23.382;2023-05-03T02:20:08;94674.09;;;15.28;46.63
12775;BME280;6451;42.630;23.382;2023-05-03T02:22:36;94604.19;;;14.78;46.57
12775;BME280;6451;42.630;23.382;2023-05-03T02:25:03;94658.72;;;15.46;46.46
12775;BME280;6451;42.630;23.382;2023-05-03T02:27:31;94671.63;;;15.19;47.01
12775;BME280;6451;42.630;23.382;2023-05-03T02:30:00;94674.53;;;15.07;47.30
12775;BME280;6451;42.630;23.382;2023-05-03T02:32:27;94597.56;;;14.79;46.76
12775;BME280;6451;42.630;23.382;2023-05-03T02:34:54;94659.13;;;15.18;47.05
12775;BME280;6451;42.630;23.382;2023-05-03T02:37:21;94659.47;;;15.17;47.29
12775;BME280;6451;42.630;23.382;2023-05-03T02:39:48;94645.50;;;14.95;47.31
12775;BME280;6451;42.630;23.382;2023-05-03T02:42:15;94666.72;;;15.06;47.40
12775;BME280;6451;42.630;23.382;2023-05-03T02:44:42;94638.88;;;15.23;46.93
12775;BME280;6451;42.630;23.382;2023-05-03T02:47:12;94646.81;;;15.05;47.57
12775;BME280;6451;42.630;23.382;2023-05-03T02:49:39;94639.97;;;15.45;46.75
12775;BME280;6451;42.630;23.382;2023-05-03T02:52:06;94647.47;;;15.25;47.65
12775;BME280;6451;42.630;23.382;2023-05-03T02:54:35;94629.28;;;15.10;48.06
12775;BME280;6451;42.630;23.382;2023-05-03T02:57:02;94641.47;;;14.89;47.64
12775;BME280;6451;42.630;23.382;2023-05-03T02:59:30;94658.56;;;15.09;47.69
12775;BME280;6451;42.630;23.382;2023-05-03T03:01:58;94650.59;;;15.23;47.22
12775;BME280;6451;42.630;23.382;2023-05-03T03:04:26;94619.19;;;14.87;48.00
12775;BME280;6451;42.630;23.382;2023-05-03T03:06:53;94644.81;;;15.85;47.06
12775;BME280;6451;42.630;23.382;2023-05-03T03:09:21;94656.47;;;15.52;47.14
12775;BME280;6451;42.630;23.382;2023-05-03T03:11:50;94654.38;;;15.42;47.53
12775;BME280;6451;42.630;23.382;2023-05-03T03:14:17;94658.94;;;15.61;47.13
12775;BME280;6451;42.630;23.382;2023-05-03T03:16:44;94658.09;;;15.30;47.90
12775;BME280;6451;42.630;23.382;2023-05-03T03:19:11;94660.00;;;15.52;47.04
12775;BME280;6451;42.630;23.382;2023-05-03T03:21:39;94650.59;;;15.23;47.66
12775;BME280;6451;42.630;23.382;2023-05-03T03:24:07;94659.47;;;15.17;47.69
12775;BME280;6451;42.630;23.382;2023-05-03T03:26:35;94655.56;;;15.18;47.99
12775;BME280;6451;42.630;23.382;2023-05-03T03:29:02;94674.41;;;15.49;46.95
12775;BME280;6451;42.630;23.382;2023-05-03T03:31:33;94678.66;;;15.47;47.11
12775;BME280;6451;42.630;23.382;2023-05-03T03:34:00;94666.38;;;15.34;47.00
12775;BME280;6451;42.630;23.382;2023-05-03T03:36:34;94511.84;;;14.37;47.19
12775;BME280;6451;42.630;23.382;2023-05-03T03:39:04;94660.19;;;15.40;46.75
12775;BME280;6451;42.630;23.382;2023-05-03T03:41:31;94682.72;;;15.30;47.23
12775;BME280;6451;42.630;23.382;2023-05-03T03:43:58;94694.81;;;15.55;47.17
12775;BME280;6451;42.630;23.382;2023-05-03T03:46:25;94691.09;;;15.18;47.33
12775;BME280;6451;42.630;23.382;2023-05-03T03:48:51;94685.63;;;15.18;46.99
12775;BME280;6451;42.630;23.382;2023-05-03T03:51:18;94701.31;;;15.21;47.31
12775;BME280;6451;42.630;23.382;2023-05-03T03:53:45;94687.16;;;15.15;47.47
12775;BME280;6451;42.630;23.382;2023-05-03T03:56:16;94690.09;;;15.52;46.73
12775;BME280;6451;42.630;23.382;2023-05-03T03:58:43;94707.34;;;15.56;46.88
12775;BME280;6451;42.630;23.382;2023-05-03T04:01:10;94708.66;;;15.17;46.83
12775;BME280;6451;42.630;23.382;2023-05-03T04:03:38;94686.28;;;15.08;47.11
12775;BME280;6451;42.630;23.382;2023-05-03T04:06:05;94722.34;;;15.17;47.83
12775;BME280;6451;42.630;23.382;2023-05-03T04:08:32;94705.00;;;15.32;47.07
12775;BME280;6451;42.630;23.382;2023-05-03T04:11:01;94730.63;;;15.47;47.36
12775;BME280;6451;42.630;23.382;2023-05-03T04:13:29;94687.31;;;14.99;47.70
12775;BME280;6451;42.630;23.382;2023-05-03T04:15:56;94726.78;;;15.02;47.96
12775;BME280;6451;42.630;23.382;2023-05-03T04:18:23;94741.97;;;14.99;48.50
12775;BME280;6451;42.630;23.382;2023-05-03T04:20:50;94739.47;;;15.37;48.18
12775;BME280;6451;42.630;23.382;2023-05-03T04:23:19;94744.69;;;14.99;48.92
12775;BME280;6451;42.630;23.382;2023-05-03T04:25:46;94742.88;;;15.30;49.10
12775;BME280;6451;42.630;23.382;2023-05-03T04:28:13;94746.47;;;14.88;49.24
12775;BME280;6451;42.630;23.382;2023-05-03T04:30:42;94758.59;;;15.37;48.47
12775;BME280;6451;42.630;23.382;2023-05-03T04:33:11;94733.34;;;15.20;47.73
12775;BME280;6451;42.630;23.382;2023-05-03T04:35:39;94747.41;;;14.77;49.24
12775;BME280;6451;42.630;23.382;2023-05-03T04:38:06;94751.91;;;14.65;49.35
12775;BME280;6451;42.630;23.382;2023-05-03T04:40:33;94764.97;;;14.76;49.23
12775;BME280;6451;42.630;23.382;2023-05-03T04:43:00;94751.91;;;14.65;49.56
12775;BME280;6451;42.630;23.382;2023-05-03T04:45:27;94755.50;;;15.15;48.96
12775;BME280;6451;42.630;23.382;2023-05-03T04:47:55;94764.88;;;15.14;49.69
12775;BME280;6451;42.630;23.382;2023-05-03T04:50:22;94771.50;;;15.36;49.18
12775;BME280;6451;42.630;23.382;2023-05-03T04:52:50;94767.22;;;15.16;50.38
12775;BME280;6451;42.630;23.382;2023-05-03T04:55:17;94777.91;;;15.24;50.72
12775;BME280;6451;42.630;23.382;2023-05-03T04:57:45;94780.00;;;15.31;51.82
12775;BME280;6451;42.630;23.382;2023-05-03T05:00:13;94784.69;;;14.65;54.04
12775;BME280;6451;42.630;23.382;2023-05-03T05:02:40;94784.91;;;14.80;55.57
12775;BME280;6451;42.630;23.382;2023-05-03T05:05:09;94790.56;;;14.48;56.96
12775;BME280;6451;42.630;23.382;2023-05-03T05:07:36;94792.50;;;14.67;57.93
12775;BME280;6451;42.630;23.382;2023-05-03T05:10:05;94800.81;;;14.93;58.32
12775;BME280;6451;42.630;23.382;2023-05-03T05:12:32;94794.44;;;14.66;57.83
12775;BME280;6451;42.630;23.382;2023-05-03T05:14:59;94786.44;;;14.96;57.48
12775;BME280;6451;42.630;23.382;2023-05-03T05:17:26;94813.31;;;14.94;57.75
12775;BME280;6451;42.630;23.382;2023-05-03T05:19:55;94811.03;;;15.19;57.35
12775;BME280;6451;42.630;23.382;2023-05-03T05:22:23;94812.31;;;15.25;57.78
12775;BME280;6451;42.630;23.382;2023-05-03T05:24:50;94808.78;;;15.48;56.92
12775;BME280;6451;42.630;23.382;2023-05-03T05:27:17;94820.81;;;15.89;55.87
12775;BME280;6451;42.630;23.382;2023-05-03T05:29:45;94824.06;;;15.98;55.57
12775;BME280;6451;42.630;23.382;2023-05-03T05:32:12;94813.22;;;15.56;55.34
12775;BME280;6451;42.630;23.382;2023-05-03T05:34:39;94823.69;;;15.50;55.42
12775;BME280;6451;42.630;23.382;2023-05-03T05:37:06;94819.38;;;15.72;55.05
12775;BME280;6451;42.630;23.382;2023-05-03T05:39:36;94817.69;;;15.41;55.41
12775;BME280;6451;42.630;23.382;2023-05-03T05:42:03;94821.38;;;15.52;56.00
12775;BME280;6451;42.630;23.382;2023-05-03T05:44:30;94816.72;;;15.79;55.36
12775;BME280;6451;42.630;23.382;2023-05-03T05:46:57;94804.72;;;15.38;55.76
12775;BME280;6451;42.630;23.382;2023-05-03T05:49:24;94813.31;;;15.86;54.84
12775;BME280;6451;42.630;23.382;2023-05-03T05:51:51;94769.66;;;15.67;54.49
12775;BME280;6451;42.630;23.382;2023-05-03T05:54:17;94815.13;;;15.75;55.16
12775;BME280;6451;42.630;23.382;2023-05-03T05:56:46;94805.56;;;15.88;54.71
12775;BME280;6451;42.630;23.382;2023-05-03T05:59:14;94806.28;;;15.85;55.47
12775;BME280;6451;42.630;23.382;2023-05-03T06:01:41;94809.50;;;15.64;55.60
12775;BME280;6451;42.630;23.382;2023-05-03T06:04:10;94790.97;;;15.80;54.67
12775;BME280;6451;42.630;23.382;2023-05-03T06:06:37;94804.34;;;15.63;54.96
12775;BME280;6451;42.630;23.382;2023-05-03T06:09:04;94811.25;;;15.79;54.37
12775;BME280;6451;42.630;23.382;2023-05-03T06:11:33;94809.00;;;15.85;54.15
12775;BME280;6451;42.630;23.382;2023-05-03T06:14:01;94792.94;;;15.57;54.18
12775;BME280;6451;42.630;23.382;2023-05-03T06:16:29;94795.19;;;15.74;53.30
12775;BME280;6451;42.630;23.382;2023-05-03T06:18:56;94806.19;;;16.64;52.30
12775;BME280;6451;42.630;23.382;2023-05-03T06:21:23;94792.94;;;15.80;53.65
12775;BME280;6451;42.630;23.382;2023-05-03T06:23:50;94802.84;;;16.18;53.46
12775;BME280;6451;42.630;23.382;2023-05-03T06:26:17;94809.59;;;15.98;54.17
12775;BME280;6451;42.630;23.382;2023-05-03T06:28:44;94811.28;;;15.56;55.70
12775;BME280;6451;42.630;23.382;2023-05-03T06:31:13;94793.66;;;15.77;55.82
12775;BME280;6451;42.630;23.382;2023-05-03T06:33:39;94798.69;;;15.75;56.17
12775;BME280;6451;42.630;23.382;2023-05-03T06:36:07;94795.38;;;15.62;55.85
12775;BME280;6451;42.630;23.382;2023-05-03T06:38:34;94776.59;;;15.87;55.52
12775;BME280;6451;42.630;23.382;2023-05-03T06:41:01;94794.78;;;16.29;54.87
12775;BME280;6451;42.630;23.382;2023-05-03T06:43:28;94788.00;;;16.19;55.78
12775;BME280;6451;42.630;23.382;2023-05-03T06:45:55;94780.75;;;15.77;55.16
12775;BME280;6451;42.630;23.382;2023-05-03T06:48:24;94783.94;;;16.09;54.88
12775;BME280;6451;42.630;23.382;2023-05-03T06:50:53;94763.69;;;16.14;55.16
12775;BME280;6451;42.630;23.382;2023-05-03T06:53:20;94773.88;;;16.17;55.68
12775;BME280;6451;42.630;23.382;2023-05-03T06:55:47;94772.06;;;15.98;56.06
12775;BME280;6451;42.630;23.382;2023-05-03T06:58:14;94769.91;;;15.84;56.29
12775;BME280;6451;42.630;23.382;2023-05-03T07:00:41;94755.84;;;15.86;55.78
12775;BME280;6451;42.630;23.382;2023-05-03T07:03:08;94751.53;;;15.85;56.05
12775;BME280;6451;42.630;23.382;2023-05-03T07:05:39;94761.88;;;15.95;56.00
12775;BME280;6451;42.630;23.382;2023-05-03T07:08:06;94748.81;;;15.36;57.02
12775;BME280;6451;42.630;23.382;2023-05-03T07:10:33;94747.34;;;15.65;56.88
12775;BME280;6451;42.630;23.382;2023-05-03T07:13:00;94779.38;;;15.91;56.68
12775;BME280;6451;42.630;23.382;2023-05-03T07:15:27;94763.34;;;15.89;56.86
12775;BME280;6451;42.630;23.382;2023-05-03T07:17:54;94765.56;;;15.80;57.55
12775;BME280;6451;42.630;23.382;2023-05-03T07:20:21;94764.56;;;15.42;58.56
12775;BME280;6451;42.630;23.382;2023-05-03T07:22:50;94764.97;;;15.67;58.68
12775;BME280;6451;42.630;23.382;2023-05-03T07:25:17;94756.81;;;15.48;59.73
12775;BME280;6451;42.630;23.382;2023-05-03T07:27:44;94764.97;;;15.67;59.69
12775;BME280;6451;42.630;23.382;2023-05-03T07:30:11;94770.38;;;15.64;60.61
12775;BME280;6451;42.630;23.382;2023-05-03T07:32:38;94769.81;;;15.54;60.84
12775;BME280;6451;42.630;23.382;2023-05-03T07:35:06;94746.56;;;15.41;61.10
12775;BME280;6451;42.630;23.382;2023-05-03T07:37:33;94733.03;;;15.75;60.46
12775;BME280;6451;42.630;23.382;2023-05-03T07:40:03;94737.22;;;15.69;60.75
12775;BME280;6451;42.630;23.382;2023-05-03T07:42:31;94761.94;;;16.02;60.71
12775;BME280;6451;42.630;23.382;2023-05-03T07:44:58;94756.13;;;16.04;60.75
12775;BME280;6451;42.630;23.382;2023-05-03T07:47:26;94727.38;;;15.38;61.58
12775;BME280;6451;42.630;23.382;2023-05-03T07:49:53;94751.88;;;15.80;61.92
12775;BME280;6451;42.630;23.382;2023-05-03T07:52:20;94747.88;;;15.74;62.93
12775;BME280;6451;42.630;23.382;2023-05-03T07:54:48;94759.56;;;16.01;62.15
12775;BME280;6451;42.630;23.382;2023-05-03T07:57:17;94763.16;;;15.78;63.29
12775;BME280;6451;42.630;23.382;2023-05-03T07:59:44;94763.25;;;15.82;63.59
12775;BME280;6451;42.630;23.382;2023-05-03T08:02:11;94751.53;;;15.85;63.10
12775;BME280;6451;42.630;23.382;2023-05-03T08:04:38;94760.91;;;15.84;63.68
12775;BME280;6451;42.630;23.382;2023-05-03T08:07:06;94755.94;;;16.20;62.81
12775;BME280;6451;42.630;23.382;2023-05-03T08:09:33;94753.66;;;16.59;62.92
12775;BME280;6451;42.630;23.382;2023-05-03T08:12:00;94756.75;;;16.87;61.87
12775;BME280;6451;42.630;23.382;2023-05-03T08:14:29;94755.16;;;17.27;60.83
12775;BME280;6451;42.630;23.382;2023-05-03T08:16:58;94758.72;;;16.87;61.83
12775;BME280;6451;42.630;23.382;2023-05-03T08:19:25;94746.59;;;16.91;62.14
12775;BME280;6451;42.630;23.382;2023-05-03T08:21:52;94745.66;;;17.17;60.95
12775;BME280;6451;42.630;23.382;2023-05-03T08:24:20;94749.09;;;17.51;60.32
12775;BME280;6451;42.630;23.382;2023-05-03T08:26:47;94749.38;;;17.39;60.94
12775;BME280;6451;42.630;23.382;2023-05-03T08:29:15;94681.91;;;17.28;60.62
12775;BME280;6451;42.630;23.382;2023-05-03T08:31:43;94736.63;;;17.61;59.43
12775;BME280;6451;42.630;23.382;2023-05-03T08:34:10;94745.63;;;18.17;59.23
12775;BME280;6451;42.630;23.382;2023-05-03T08:36:37;94757.88;;;18.33;60.10
12775;BME280;6451;42.630;23.382;2023-05-03T08:39:04;94753.59;;;18.47;58.14
12775;BME280;6451;42.630;23.382;2023-05-03T08:41:32;94757.19;;;18.58;58.07
12775;BME280;6451;42.630;23.382;2023-05-03T08:44:00;94742.78;;;18.79;57.01
12775;BME280;6451;42.630;23.382;2023-05-03T08:46:28;94742.44;;;19.02;56.53
12775;BME280;6451;42.630;23.382;2023-05-03T08:48:57;94735.69;;;18.78;56.44
12775;BME280;6451;42.630;23.382;2023-05-03T08:51:25;94760.66;;;18.44;57.79
12775;BME280;6451;42.630;23.382;2023-05-03T08:53:52;94757.84;;;18.30;58.85
12775;BME280;6451;42.630;23.382;2023-05-03T08:56:24;94752.53;;;18.66;58.41
12775;BME280;6451;42.630;23.382;2023-05-03T08:58:54;94749.91;;;19.15;57.10
12775;BME280;6451;42.630;23.382;2023-05-03T09:01:21;94760.53;;;19.10;56.88
12775;BME280;6451;42.630;23.382;2023-05-03T09:03:49;94747.13;;;18.87;56.21
12775;BME280;6451;42.630;23.382;2023-05-03T09:06:22;94751.91;;;19.36;56.17
12775;BME280;6451;42.630;23.382;2023-05-03T09:08:50;94762.53;;;19.56;56.12
12775;BME280;6451;42.630;23.382;2023-05-03T09:11:21;94745.13;;;20.30;54.51
12775;BME280;6451;42.630;23.382;2023-05-03T09:13:50;94749.94;;;19.40;55.27
12775;BME280;6451;42.630;23.382;2023-05-03T09:16:24;94740.13;;;19.32;55.12
12775;BME280;6451;42.630;23.382;2023-05-03T09:18:58;94739.75;;;19.66;54.83
12775;BME280;6451;42.630;23.382;2023-05-03T09:21:27;94723.22;;;19.73;54.93
12775;BME280;6451;42.630;23.382;2023-05-03T09:23:56;94723.91;;;20.20;54.19
12775;BME280;6451;42.630;23.382;2023-05-03T09:26:29;94729.78;;;20.29;53.94
12775;BME280;6451;42.630;23.382;2023-05-03T09:28:58;94727.19;;;20.88;53.66
12775;BME280;6451;42.630;23.382;2023-05-03T09:31:27;94726.81;;;20.82;52.35
12775;BME280;6451;42.630;23.382;2023-05-03T09:33:55;94716.75;;;20.44;53.25
12775;BME280;6451;42.630;23.382;2023-05-03T09:36:22;94710.88;;;20.35;52.61
12775;BME280;6451;42.630;23.382;2023-05-03T09:38:51;94711.59;;;20.53;52.20
12775;BME280;6451;42.630;23.382;2023-05-03T09:41:26;94706.88;;;21.20;52.34
12775;BME280;6451;42.630;23.382;2023-05-03T09:43:53;94693.78;;;21.34;50.90
12775;BME280;6451;42.630;23.382;2023-05-03T09:46:22;94707.47;;;20.90;52.34
12775;BME280;6451;42.630;23.382;2023-05-03T09:48:50;94694.41;;;21.53;50.98
12775;BME280;6451;42.630;23.382;2023-05-03T09:51:21;94688.81;;;21.63;52.00
12775;BME280;6451;42.630;23.382;2023-05-03T09:53:50;94688.00;;;21.67;51.16
12775;BME280;6451;42.630;23.382;2023-05-03T09:56:18;94698.47;;;21.41;52.83
12775;BME280;6451;42.630;23.382;2023-05-03T09:58:51;94682.81;;;21.20;52.19
12775;BME280;6451;42.630;23.382;2023-05-03T10:01:18;94690.19;;;20.82;52.93
12775;BME280;6451;42.630;23.382;2023-05-03T10:03:47;94683.59;;;20.62;52.63
12775;BME280;6451;42.630;23.382;2023-05-03T10:06:58;94682.28;;;20.88;52.87
12775;BME280;6451;42.630;23.382;2023-05-03T10:09:30;94556.72;;;19.95;53.31
12775;BME280;6451;42.630;23.382;2023-05-03T10:12:00;94679.94;;;21.38;52.18
12775;BME280;6451;42.630;23.382;2023-05-03T10:14:30;94693.22;;;20.98;52.73
12775;BME280;6451;42.630;23.382;2023-05-03T10:16:59;94683.59;;;21.21;52.26
12775;BME280;6451;42.630;23.382;2023-05-03T10:19:29;94674.75;;;21.47;51.92
12775;BME280;6451;42.630;23.382;2023-05-03T10:22:03;94667.38;;;21.75;51.46
12775;BME280;6451;42.630;23.382;2023-05-03T10:24:32;94666.06;;;21.49;52.44
12775;BME280;6451;42.630;23.382;2023-05-03T10:26:59;94620.88;;;21.32;51.90
12775;BME280;6451;42.630;23.382;2023-05-03T10:29:46;94653.09;;;21.83;51.50
12775;BME280;6451;42.630;23.382;2023-05-03T10:32:33;94652.44;;;22.06;50.37
12775;BME280;6451;42.630;23.382;2023-05-03T10:35:05;94635.47;;;22.42;49.56
12775;BME280;6451;42.630;23.382;2023-05-03T10:37:34;94644.28;;;22.30;50.41
12775;BME280;6451;42.630;23.382;2023-05-03T10:40:07;94638.91;;;22.19;50.28
12775;BME280;6451;42.630;23.382;2023-05-03T10:42:36;94633.13;;;22.40;50.50
12775;BME280;6451;42.630;23.382;2023-05-03T10:45:04;94616.69;;;22.87;49.25
12775;BME280;6451;42.630;23.382;2023-05-03T10:47:33;94649.47;;;22.28;49.75
12775;BME280;6451;42.630;23.382;2023-05-03T10:50:26;94654.38;;;22.47;49.49
12775;BME280;6451;42.630;23.382;2023-05-03T10:52:54;94658.25;;;22.19;49.30
12775;BME280;6451;42.630;23.382;2023-05-03T10:55:22;94667.34;;;22.19;49.54
12775;BME280;6451;42.630;23.382;2023-05-03T10:57:53;94642.00;;;21.87;49.63
12775;BME280;6451;42.630;23.382;2023-05-03T11:00:28;94661.22;;;22.01;49.22
12775;BME280;6451;42.630;23.382;2023-05-03T11:03:08;94650.59;;;21.96;49.52
12775;BME280;6451;42.630;23.382;2023-05-03T11:05:37;94645.69;;;22.45;49.27
12775;BME280;6451;42.630;23.382;2023-05-03T11:08:10;94648.44;;;22.45;49.54
12775;BME280;6451;42.630;23.382;2023-05-03T11:10:37;94634.09;;;22.54;49.86
12775;BME280;6451;42.630;23.382;2023-05-03T11:13:05;94638.13;;;22.49;49.89
12775;BME280;6451;42.630;23.382;2023-05-03T11:15:32;94633.72;;;22.86;49.10
12775;BME280;6451;42.630;23.382;2023-05-03T11:17:59;94640.63;;;23.24;48.12
12775;BME280;6451;42.630;23.382;2023-05-03T11:20:26;94638.47;;;22.55;49.07
12775;BME280;6451;42.630;23.382;2023-05-03T11:22:53;94630.44;;;22.91;48.88
12775;BME280;6451;42.630;23.382;2023-05-03T11:25:23;94633.03;;;22.74;49.33
12775;BME280;6451;42.630;23.382;2023-05-03T11:27:49;94627.84;;;22.50;49.89
12775;BME280;6451;42.630;23.382;2023-05-03T11:30:16;94619.38;;;22.33;50.97
12775;BME280;6451;42.630;23.382;2023-05-03T11:32:44;94622.19;;;23.14;50.16
12775;BME280;6451;42.630;23.382;2023-05-03T11:35:12;94621.16;;;23.05;50.39
12775;BME280;6451;42.630;23.382;2023-05-03T11:37:40;94626.47;;;22.92;51.02
12775;BME280;6451;42.630;23.382;2023-05-03T11:40:13;94631.13;;;22.98;51.11
12775;BME280;6451;42.630;23.382;2023-05-03T11:42:53;94614.59;;;23.42;49.45
12775;BME280;6451;42.630;23.382;2023-05-03T11:45:23;94622.31;;;23.30;49.74
12775;BME280;6451;42.630;23.382;2023-05-03T11:47:51;94608.66;;;23.67;48.70
12775;BME280;6451;42.630;23.382;2023-05-03T11:50:18;94603.88;;;23.20;49.23
12775;BME280;6451;42.630;23.382;2023-05-03T11:52:52;94606.19;;;23.72;49.51
12775;BME280;6451;42.630;23.382;2023-05-03T11:55:20;94603.41;;;23.49;50.64
12775;BME280;6451;42.630;23.382;2023-05-03T11:57:50;94588.28;;;23.30;50.73
12775;BME280;6451;42.630;23.382;2023-05-03T12:00:19;94602.78;;;23.38;50.26
12775;BME280;6451;42.630;23.382;2023-05-03T12:02:47;94597.66;;;23.59;49.61
12775;BME280;6451;42.630;23.382;2023-05-03T12:05:14;94582.34;;;23.08;50.41
12775;BME280;6451;42.630;23.382;2023-05-03T12:07:41;94589.97;;;22.73;50.12
12775;BME280;6451;42.630;23.382;2023-05-03T12:10:13;94613.63;;;22.20;51.78
12775;BME280;6451;42.630;23.382;2023-05-03T12:12:50;94600.81;;;22.34;52.52
12775;BME280;6451;42.630;23.382;2023-05-03T12:15:27;94599.78;;;21.86;52.84
12775;BME280;6451;42.630;23.382;2023-05-03T12:17:56;94603.25;;;22.28;52.78
12775;BME280;6451;42.630;23.382;2023-05-03T12:20:24;94602.16;;;21.84;53.12
12775;BME280;6451;42.630;23.382;2023-05-03T12:22:54;94594.91;;;21.63;52.39
12775;BME280;6451;42.630;23.382;2023-05-03T12:25:22;94589.25;;;21.40;53.52
12775;BME280;6451;42.630;23.382;2023-05-03T12:27:51;94600.06;;;21.17;54.06
12775;BME280;6451;42.630;23.382;2023-05-03T12:30:18;94600.81;;;20.69;55.63
12775;BME280;6451;42.630;23.382;2023-05-03T12:32:47;94606.50;;;20.47;57.21
12775;BME280;6451;42.630;23.382;2023-05-03T12:35:15;94611.22;;;20.36;56.95
12775;BME280;6451;42.630;23.382;2023-05-03T12:37:43;94603.53;;;20.03;58.52
12775;BME280;6451;42.630;23.382;2023-05-03T12:40:10;94607.91;;;19.89;59.34
12775;BME280;6451;42.630;23.382;2023-05-03T12:42:39;94618.56;;;19.77;59.71
12775;BME280;6451;42.630;23.382;2023-05-03T12:45:07;94612.22;;;19.90;60.00
12775;BME280;6451;42.630;23.382;2023-05-03T12:47:34;94614.69;;;19.49;61.07
12775;BME280;6451;42.630;23.382;2023-05-03T12:50:04;94610.31;;;19.80;60.92
12775;BME280;6451;42.630;23.382;2023-05-03T12:52:32;94588.06;;;20.26;59.93
12775;BME280;6451;42.630;23.382;2023-05-03T12:55:00;94603.88;;;20.08;62.48
12775;BME280;6451;42.630;23.382;2023-05-03T12:57:27;94605.22;;;19.68;65.52
12775;BME280;6451;42.630;23.382;2023-05-03T12:59:56;94596.88;;;19.89;67.67
12775;BME280;6451;42.630;23.382;2023-05-03T13:02:23;94605.91;;;19.93;68.40
12775;BME280;6451;42.630;23.382;2023-05-03T13:04:50;94611.38;;;20.04;69.21
12775;BME280;6451;42.630;23.382;2023-05-03T13:07:21;94617.81;;;19.65;71.95